createdAt,value
2018-07-24T00:00:18.975Z,17.3
2018-07-24T00:01:20.982Z,17.3
2018-07-24T00:02:23.253Z,17.3
2018-07-24T00:03:25.250Z,17.2
2018-07-24T00:04:27.245Z,17.3
2018-07-24T00:05:29.231Z,17.3
2018-07-24T00:06:31.233Z,17.3
2018-07-24T00:07:33.229Z,17.3
2018-07-24T00:08:35.232Z,17.3
2018-07-24T00:09:37.224Z,17.2
2018-07-24T00:10:39.528Z,17.2
2018-07-24T00:11:41.520Z,17.2
2018-07-24T00:12:43.514Z,17.3
2018-07-24T00:13:45.567Z,17.2
2018-07-24T00:14:47.508Z,17.2
2018-07-24T00:15:49.504Z,17.2
2018-07-24T00:16:52.090Z,17.2
2018-07-24T00:17:54.525Z,17.1
2018-07-24T00:18:56.505Z,17.3
2018-07-24T00:19:58.502Z,17.4
2018-07-24T00:21:00.799Z,17.4
2018-07-24T00:22:02.789Z,17.4
2018-07-24T00:23:04.797Z,17.4
2018-07-24T00:24:06.793Z,17.3
2018-07-24T00:25:08.803Z,17.3
2018-07-24T00:26:10.792Z,17.3
2018-07-24T00:27:12.796Z,17.3
2018-07-24T00:28:15.075Z,17.3
2018-07-24T00:29:17.070Z,17.3
2018-07-24T00:30:19.068Z,17.3
2018-07-24T00:31:21.057Z,17.2
2018-07-24T00:32:23.049Z,17.2
2018-07-24T00:33:25.051Z,17.2
2018-07-24T00:34:27.034Z,17.2
2018-07-24T00:35:29.040Z,17.2
2018-07-24T00:36:31.035Z,17.2
2018-07-24T00:37:33.350Z,17.1
2018-07-24T00:38:35.356Z,17.1
2018-07-24T00:39:37.344Z,17.1
2018-07-24T00:40:39.340Z,17.1
2018-07-24T00:41:41.336Z,17.1
2018-07-24T00:42:43.344Z,17.2
2018-07-24T00:43:45.329Z,17.2
2018-07-24T00:44:47.609Z,17.1
2018-07-24T00:45:49.608Z,17.2
2018-07-24T00:46:51.592Z,17.1
2018-07-24T00:47:53.600Z,17.1
2018-07-24T00:48:55.977Z,17.1
2018-07-24T00:49:57.978Z,17.1
2018-07-24T00:50:59.964Z,17.2
2018-07-24T00:52:01.969Z,17.2
2018-07-24T00:53:03.964Z,17.2
2018-07-24T00:54:06.025Z,17.1
2018-07-24T00:55:08.732Z,17.2
2018-07-24T00:56:10.737Z,17.1
2018-07-24T00:57:13.116Z,17.1
2018-07-24T00:58:15.111Z,17.1
2018-07-24T00:59:17.385Z,17.1
2018-07-24T01:00:19.398Z,17.1
2018-07-24T01:01:21.398Z,17.1
2018-07-24T01:02:23.392Z,17.1
2018-07-24T01:03:25.706Z,17
2018-07-24T01:04:27.964Z,17
2018-07-24T01:05:29.960Z,17.1
2018-07-24T01:06:31.967Z,17.1
2018-07-24T01:07:33.946Z,17.1
2018-07-24T01:08:36.835Z,17.1
2018-07-24T01:09:39.091Z,17.1
2018-07-24T01:10:41.088Z,17.1
2018-07-24T01:11:43.393Z,17.1
2018-07-24T01:12:45.384Z,17.1
2018-07-24T01:13:47.379Z,17.1
2018-07-24T01:14:49.368Z,17.1
2018-07-24T01:15:51.374Z,17
2018-07-24T01:16:53.360Z,17
2018-07-24T01:17:55.355Z,17
2018-07-24T01:18:57.347Z,17
2018-07-24T01:19:59.718Z,17
2018-07-24T01:21:02.004Z,17
2018-07-24T01:22:04.380Z,17
2018-07-24T01:23:06.384Z,17
2018-07-24T01:24:09.031Z,17
2018-07-24T01:25:11.037Z,17
2018-07-24T01:26:13.032Z,17
2018-07-24T01:27:15.322Z,17
2018-07-24T01:28:17.324Z,17
2018-07-24T01:29:19.589Z,16.9
2018-07-24T01:30:21.586Z,16.9
2018-07-24T01:31:23.584Z,16.9
2018-07-24T01:32:25.581Z,16.9
2018-07-24T01:33:27.577Z,16.9
2018-07-24T01:34:30.138Z,16.9
2018-07-24T01:35:32.140Z,16.9
2018-07-24T01:36:34.421Z,16.9
2018-07-24T01:37:36.434Z,16.8
2018-07-24T01:38:38.822Z,16.8
2018-07-24T01:39:40.821Z,16.8
2018-07-24T01:40:42.829Z,16.9
2018-07-24T01:41:44.829Z,16.9
2018-07-24T01:42:46.826Z,16.9
2018-07-24T01:43:48.828Z,17
2018-07-24T01:44:51.099Z,17
2018-07-24T01:45:53.105Z,16.9
2018-07-24T01:46:55.110Z,16.9
2018-07-24T01:47:57.113Z,16.9
2018-07-24T01:48:59.770Z,16.9
2018-07-24T01:50:01.786Z,16.9
2018-07-24T01:51:04.061Z,16.9
2018-07-24T01:52:06.065Z,16.9
2018-07-24T01:53:08.078Z,16.9
2018-07-24T01:54:10.066Z,16.9
2018-07-24T01:55:12.073Z,16.8
2018-07-24T01:56:14.376Z,16.8
2018-07-24T01:57:16.387Z,16.8
2018-07-24T01:58:18.379Z,16.8
2018-07-24T01:59:20.383Z,16.8
2018-07-24T02:00:22.383Z,16.8
2018-07-24T02:01:24.371Z,16.8
2018-07-24T02:02:26.382Z,16.8
2018-07-24T02:03:28.386Z,16.8
2018-07-24T02:04:30.382Z,16.8
2018-07-24T02:05:32.383Z,16.8
2018-07-24T02:06:34.397Z,16.8
2018-07-24T02:07:36.696Z,16.8
2018-07-24T02:08:38.696Z,16.8
2018-07-24T02:09:40.697Z,16.8
2018-07-24T02:10:42.705Z,16.7
2018-07-24T02:11:45.090Z,16.7
2018-07-24T02:12:47.086Z,16.7
2018-07-24T02:13:49.103Z,16.7
2018-07-24T02:14:51.663Z,16.7
2018-07-24T02:15:53.981Z,16.7
2018-07-24T02:16:55.973Z,16.6
2018-07-24T02:17:58.261Z,16.6
2018-07-24T02:19:00.550Z,16.7
2018-07-24T02:20:03.220Z,16.7
2018-07-24T02:21:05.228Z,16.7
2018-07-24T02:22:07.498Z,16.7
2018-07-24T02:23:09.506Z,16.7
2018-07-24T02:24:11.506Z,16.7
2018-07-24T02:25:13.506Z,16.7
2018-07-24T02:26:15.518Z,16.7
2018-07-24T02:27:17.507Z,16.7
2018-07-24T02:28:19.511Z,16.7
2018-07-24T02:29:21.813Z,16.7
2018-07-24T02:30:24.210Z,16.7
2018-07-24T02:31:26.197Z,16.7
2018-07-24T02:32:28.480Z,16.6
2018-07-24T02:33:30.766Z,16.6
2018-07-24T02:34:33.038Z,16.6
2018-07-24T02:35:35.053Z,16.6
2018-07-24T02:36:37.437Z,16.6
2018-07-24T02:37:40.009Z,16.7
2018-07-24T02:38:42.019Z,16.6
2018-07-24T02:39:44.038Z,16.6
2018-07-24T02:40:46.021Z,16.6
2018-07-24T02:41:48.034Z,16.6
2018-07-24T02:42:50.317Z,16.6
2018-07-24T02:43:52.891Z,16.6
2018-07-24T02:44:54.893Z,16.6
2018-07-24T02:45:56.900Z,16.6
2018-07-24T02:46:58.892Z,16.6
2018-07-24T02:48:01.182Z,16.7
2018-07-24T02:49:03.180Z,16.7
2018-07-24T02:50:05.186Z,16.7
2018-07-24T02:51:07.198Z,16.7
2018-07-24T02:52:09.196Z,16.7
2018-07-24T02:53:11.764Z,16.7
2018-07-24T02:54:14.417Z,16.7
2018-07-24T02:55:17.417Z,16.6
2018-07-24T02:56:19.693Z,16.7
2018-07-24T02:57:21.697Z,16.7
2018-07-24T02:58:23.696Z,16.6
2018-07-24T02:59:26.351Z,16.6
2018-07-24T03:00:28.645Z,16.6
2018-07-24T03:01:30.945Z,16.6
2018-07-24T03:02:33.255Z,16.6
2018-07-24T03:03:35.243Z,16.6
2018-07-24T03:04:37.269Z,16.5
2018-07-24T03:05:39.269Z,16.6
2018-07-24T03:06:41.268Z,16.7
2018-07-24T03:07:43.278Z,16.6
2018-07-24T03:08:45.267Z,16.6
2018-07-24T03:09:47.265Z,16.7
2018-07-24T03:10:49.553Z,16.6
2018-07-24T03:11:51.550Z,16.6
2018-07-24T03:12:53.542Z,16.7
2018-07-24T03:13:55.541Z,16.6
2018-07-24T03:14:57.542Z,16.6
2018-07-24T03:15:59.545Z,16.6
2018-07-24T03:17:01.846Z,16.6
2018-07-24T03:18:04.150Z,16.6
2018-07-24T03:19:06.139Z,16.5
2018-07-24T03:20:08.451Z,16.5
2018-07-24T03:21:10.445Z,16.5
2018-07-24T03:22:12.831Z,16.6
2018-07-24T03:23:15.212Z,16.6
2018-07-24T03:24:17.228Z,16.6
2018-07-24T03:25:19.503Z,16.6
2018-07-24T03:26:21.886Z,16.6
2018-07-24T03:27:23.884Z,16.6
2018-07-24T03:28:25.902Z,16.7
2018-07-24T03:29:28.174Z,16.7
2018-07-24T03:30:30.245Z,16.6
2018-07-24T03:31:32.570Z,16.7
2018-07-24T03:32:34.558Z,16.6
2018-07-24T03:33:36.570Z,16.7
2018-07-24T03:34:38.569Z,16.7
2018-07-24T03:35:40.576Z,16.6
2018-07-24T03:36:42.625Z,16.7
2018-07-24T03:37:44.636Z,16.7
2018-07-24T03:38:46.639Z,16.7
2018-07-24T03:39:48.725Z,16.7
2018-07-24T03:40:51.026Z,16.7
2018-07-24T03:41:53.014Z,16.7
2018-07-24T03:42:55.297Z,16.7
2018-07-24T03:43:57.689Z,16.7
2018-07-24T03:45:00.029Z,16.7
2018-07-24T03:46:01.970Z,16.8
2018-07-24T03:47:03.971Z,16.7
2018-07-24T03:48:06.271Z,16.7
2018-07-24T03:49:08.552Z,16.8
2018-07-24T03:50:10.567Z,16.8
2018-07-24T03:51:12.954Z,16.7
2018-07-24T03:52:15.228Z,16.8
2018-07-24T03:53:17.248Z,16.8
2018-07-24T03:54:19.515Z,16.8
2018-07-24T03:55:21.514Z,16.8
2018-07-24T03:56:23.518Z,16.9
2018-07-24T03:57:25.506Z,16.8
2018-07-24T03:58:27.514Z,16.8
2018-07-24T03:59:29.900Z,16.9
2018-07-24T04:00:31.907Z,16.9
2018-07-24T04:01:33.906Z,16.9
2018-07-24T04:02:36.582Z,16.9
2018-07-24T04:03:38.584Z,16.9
2018-07-24T04:04:40.587Z,16.9
2018-07-24T04:05:42.577Z,17
2018-07-24T04:06:44.874Z,16.9
2018-07-24T04:07:46.878Z,17
2018-07-24T04:08:48.888Z,17
2018-07-24T04:09:50.881Z,17
2018-07-24T04:10:52.889Z,17
2018-07-24T04:11:54.891Z,17
2018-07-24T04:12:56.886Z,17.1
2018-07-24T04:13:58.897Z,17.1
2018-07-24T04:15:00.889Z,17.1
2018-07-24T04:16:02.892Z,17.1
2018-07-24T04:17:04.900Z,17.2
2018-07-24T04:18:07.284Z,17.3
2018-07-24T04:19:09.664Z,17.2
2018-07-24T04:20:11.668Z,17.2
2018-07-24T04:21:13.669Z,17.3
2018-07-24T04:22:15.673Z,17.2
2018-07-24T04:23:18.071Z,17.4
2018-07-24T04:24:20.380Z,17.4
2018-07-24T04:25:22.374Z,17.4
2018-07-24T04:26:24.386Z,17.4
2018-07-24T04:27:26.766Z,17.4
2018-07-24T04:28:28.769Z,17.4
2018-07-24T04:29:31.065Z,17.5
2018-07-24T04:30:33.057Z,17.6
2018-07-24T04:31:35.344Z,17.6
2018-07-24T04:32:37.347Z,17.6
2018-07-24T04:33:39.357Z,17.8
2018-07-24T04:34:41.349Z,17.7
2018-07-24T04:35:43.361Z,17.8
2018-07-24T04:36:45.363Z,17.7
2018-07-24T04:37:47.365Z,17.9
2018-07-24T04:38:49.365Z,17.8
2018-07-24T04:39:51.860Z,17.9
2018-07-24T04:40:53.837Z,17.8
2018-07-24T04:41:56.227Z,18
2018-07-24T04:42:58.221Z,17.9
2018-07-24T04:44:00.232Z,18.1
2018-07-24T04:45:02.235Z,18.1
2018-07-24T04:46:04.233Z,18.1
2018-07-24T04:47:06.244Z,18.1
2018-07-24T04:48:08.233Z,18.1
2018-07-24T04:49:10.236Z,18.2
2018-07-24T04:50:12.243Z,18.3
2018-07-24T04:51:14.243Z,18.3
2018-07-24T04:52:16.243Z,18.3
2018-07-24T04:53:18.246Z,18.3
2018-07-24T04:54:20.246Z,18.4
2018-07-24T04:55:22.249Z,18.4
2018-07-24T04:56:24.263Z,18.4
2018-07-24T04:57:26.267Z,18.4
2018-07-24T04:58:28.261Z,18.4
2018-07-24T04:59:30.275Z,18.5
2018-07-24T05:00:32.276Z,18.5
2018-07-24T05:01:34.560Z,18.6
2018-07-24T05:02:36.624Z,18.6
2018-07-24T05:03:38.556Z,18.8
2018-07-24T05:04:40.564Z,18.7
2018-07-24T05:05:42.569Z,18.7
2018-07-24T05:06:44.580Z,18.7
2018-07-24T05:07:46.575Z,18.8
2018-07-24T05:08:48.867Z,18.9
2018-07-24T05:09:51.157Z,19
2018-07-24T05:10:53.535Z,18.9
2018-07-24T05:11:55.830Z,19
2018-07-24T05:12:57.821Z,19
2018-07-24T05:14:00.114Z,19.1
2018-07-24T05:15:02.401Z,19.1
2018-07-24T05:16:04.797Z,19.2
2018-07-24T05:17:06.788Z,19.3
2018-07-24T05:18:08.793Z,19.4
2018-07-24T05:19:10.800Z,19.5
2018-07-24T05:20:13.459Z,19.5
2018-07-24T05:21:15.472Z,19.5
2018-07-24T05:22:17.477Z,19.6
2018-07-24T05:23:19.480Z,19.7
2018-07-24T05:24:21.482Z,19.8
2018-07-24T05:25:23.497Z,19.8
2018-07-24T05:26:25.779Z,19.9
2018-07-24T05:27:27.783Z,20
2018-07-24T05:28:30.068Z,19.9
2018-07-24T05:29:32.059Z,20
2018-07-24T05:30:34.064Z,20.1
2018-07-24T05:31:36.454Z,20.1
2018-07-24T05:32:38.726Z,20.2
2018-07-24T05:33:40.737Z,20.1
2018-07-24T05:34:42.744Z,20.2
2018-07-24T05:35:45.130Z,20.2
2018-07-24T05:36:47.180Z,20.2
2018-07-24T05:37:49.144Z,20.3
2018-07-24T05:38:51.233Z,20.3
2018-07-24T05:39:53.531Z,20.4
2018-07-24T05:40:56.111Z,20.5
2018-07-24T05:41:58.492Z,20.8
2018-07-24T05:43:00.497Z,20.7
2018-07-24T05:44:02.506Z,20.7
2018-07-24T05:45:04.498Z,20.8
2018-07-24T05:46:06.797Z,20.8
2018-07-24T05:47:08.799Z,20.8
2018-07-24T05:48:11.393Z,20.8
2018-07-24T05:49:13.386Z,20.8
2018-07-24T05:50:15.404Z,20.9
2018-07-24T05:51:17.408Z,21.1
2018-07-24T05:52:19.685Z,21.1
2018-07-24T05:53:22.002Z,21.1
2018-07-24T05:54:24.006Z,21.1
2018-07-24T05:55:26.007Z,21.2
2018-07-24T05:56:28.010Z,21.3
2018-07-24T05:57:30.016Z,21.3
2018-07-24T05:58:32.029Z,21.4
2018-07-24T05:59:34.031Z,21.4
2018-07-24T06:00:36.418Z,21.5
2018-07-24T06:01:38.704Z,21.5
2018-07-24T06:02:40.698Z,21.6
2018-07-24T06:03:42.705Z,21.5
2018-07-24T06:04:44.716Z,21.6
2018-07-24T06:05:46.709Z,21.7
2018-07-24T06:06:48.723Z,21.8
2018-07-24T06:07:51.015Z,21.8
2018-07-24T06:08:53.298Z,21.9
2018-07-24T06:09:55.316Z,22
2018-07-24T06:10:57.316Z,21.9
2018-07-24T06:11:59.319Z,22
2018-07-24T06:13:01.327Z,22.1
2018-07-24T06:14:03.334Z,22.1
2018-07-24T06:15:05.326Z,22.1
2018-07-24T06:16:07.331Z,22.2
2018-07-24T06:17:09.849Z,22.2
2018-07-24T06:18:12.231Z,22.2
2018-07-24T06:19:14.244Z,22.3
2018-07-24T06:20:16.250Z,22.3
2018-07-24T06:21:18.260Z,22.4
2018-07-24T06:22:20.532Z,22.4
2018-07-24T06:23:22.552Z,22.5
2018-07-24T06:24:24.557Z,22.6
2018-07-24T06:25:26.941Z,22.6
2018-07-24T06:26:28.961Z,22.7
2018-07-24T06:27:30.958Z,22.7
2018-07-24T06:28:32.964Z,22.8
2018-07-24T06:29:35.259Z,22.8
2018-07-24T06:30:37.268Z,22.9
2018-07-24T06:31:39.265Z,23
2018-07-24T06:32:41.270Z,23
2018-07-24T06:33:43.659Z,23
2018-07-24T06:34:45.667Z,23
2018-07-24T06:35:48.043Z,23.1
2018-07-24T06:36:50.434Z,23.2
2018-07-24T06:37:52.447Z,23.2
2018-07-24T06:38:54.445Z,23.2
2018-07-24T06:39:56.456Z,23.3
2018-07-24T06:40:58.464Z,23.4
2018-07-24T06:42:00.753Z,23.4
2018-07-24T06:43:03.438Z,23.5
2018-07-24T06:44:05.443Z,23.5
2018-07-24T06:45:07.450Z,23.5
2018-07-24T06:46:09.453Z,23.6
2018-07-24T06:47:11.759Z,23.6
2018-07-24T06:48:14.038Z,23.7
2018-07-24T06:49:16.044Z,23.7
2018-07-24T06:50:18.049Z,23.8
2018-07-24T06:51:20.677Z,23.8
2018-07-24T06:52:23.955Z,23.8
2018-07-24T06:53:25.963Z,23.8
2018-07-24T06:54:28.359Z,23.9
2018-07-24T06:55:30.361Z,24
2018-07-24T06:56:32.526Z,24
2018-07-24T06:57:34.386Z,24
2018-07-24T06:58:36.388Z,24.1
2018-07-24T06:59:38.410Z,24
2018-07-24T07:00:40.406Z,24.1
2018-07-24T07:01:42.414Z,24.1
2018-07-24T07:02:44.432Z,24.2
2018-07-24T07:03:46.433Z,24.2
2018-07-24T07:04:48.713Z,24.2
2018-07-24T07:05:50.723Z,24.2
2018-07-24T07:06:52.734Z,24.3
2018-07-24T07:07:54.742Z,24.3
2018-07-24T07:08:56.768Z,24.4
2018-07-24T07:09:58.781Z,24.5
2018-07-24T07:11:01.351Z,24.5
2018-07-24T07:12:03.351Z,24.6
2018-07-24T07:13:05.506Z,24.6
2018-07-24T07:14:07.868Z,24.5
2018-07-24T07:15:09.877Z,24.6
2018-07-24T07:16:11.951Z,24.6
2018-07-24T07:17:13.914Z,24.7
2018-07-24T07:18:16.216Z,24.8
2018-07-24T07:19:18.219Z,24.8
2018-07-24T07:20:20.237Z,24.8
2018-07-24T07:21:22.233Z,24.9
2018-07-24T07:22:24.252Z,24.9
2018-07-24T07:23:26.617Z,25
2018-07-24T07:24:28.610Z,25
2018-07-24T07:25:30.623Z,25.1
2018-07-24T07:26:32.632Z,25.1
2018-07-24T07:27:34.940Z,25.2
2018-07-24T07:28:37.215Z,25.3
2018-07-24T07:29:39.233Z,25.2
2018-07-24T07:30:41.248Z,25.2
2018-07-24T07:31:43.260Z,25.3
2018-07-24T07:32:45.278Z,25.3
2018-07-24T07:33:47.278Z,25.4
2018-07-24T07:34:49.962Z,25.4
2018-07-24T07:35:51.981Z,25.5
2018-07-24T07:36:53.985Z,25.5
2018-07-24T07:37:55.983Z,25.5
2018-07-24T07:38:58.004Z,25.5
2018-07-24T07:40:00.016Z,25.6
2018-07-24T07:41:02.324Z,25.6
2018-07-24T07:42:05.017Z,25.7
2018-07-24T07:43:07.027Z,25.7
2018-07-24T07:44:09.336Z,25.6
2018-07-24T07:45:11.693Z,25.6
2018-07-24T07:46:13.667Z,25.6
2018-07-24T07:47:15.670Z,25.6
2018-07-24T07:48:17.682Z,25.7
2018-07-24T07:49:19.690Z,25.8
2018-07-24T07:50:21.706Z,25.7
2018-07-24T07:51:23.767Z,25.9
2018-07-24T07:52:26.100Z,25.9
2018-07-24T07:53:28.428Z,25.9
2018-07-24T07:54:30.450Z,26
2018-07-24T07:55:32.459Z,26
2018-07-24T07:56:34.857Z,26
2018-07-24T07:57:36.888Z,26
2018-07-24T07:58:38.932Z,26.1
2018-07-24T07:59:40.898Z,26.1
2018-07-24T08:00:42.912Z,26
2018-07-24T08:01:44.931Z,26.1
2018-07-24T08:02:47.234Z,26
2018-07-24T08:03:49.244Z,26.1
2018-07-24T08:04:51.265Z,26.1
2018-07-24T08:05:53.274Z,26.3
2018-07-24T08:06:55.568Z,26.2
2018-07-24T08:07:57.929Z,26.3
2018-07-24T08:09:00.881Z,26.3
2018-07-24T08:10:03.082Z,26.3
2018-07-24T08:11:05.468Z,26.3
2018-07-24T08:12:08.231Z,26.4
2018-07-24T08:13:10.284Z,26.5
2018-07-24T08:14:13.074Z,26.5
2018-07-24T08:15:15.104Z,26.5
2018-07-24T08:16:17.159Z,26.7
2018-07-24T08:17:19.214Z,26.7
2018-07-24T08:18:21.257Z,26.8
2018-07-24T08:19:23.312Z,26.8
2018-07-24T08:20:25.363Z,26.9
2018-07-24T08:21:28.092Z,27
2018-07-24T08:22:30.159Z,26.9
2018-07-24T08:23:32.207Z,26.9
2018-07-24T08:24:34.261Z,27
2018-07-24T08:25:36.309Z,27.1
2018-07-24T08:26:38.646Z,27
2018-07-24T08:27:41.008Z,27
2018-07-24T08:28:43.054Z,27.1
2018-07-24T08:29:45.104Z,27.2
2018-07-24T08:30:47.168Z,27.3
2018-07-24T08:31:49.210Z,27.3
2018-07-24T08:32:51.262Z,27.5
2018-07-24T08:33:53.885Z,27.5
2018-07-24T08:34:55.950Z,27.4
2018-07-24T08:35:58.582Z,27.5
2018-07-24T08:37:00.638Z,27.4
2018-07-24T08:38:02.698Z,27.4
2018-07-24T08:39:04.738Z,27.7
2018-07-24T08:40:06.804Z,27.8
2018-07-24T08:41:08.862Z,27.6
2018-07-24T08:42:10.914Z,27.6
2018-07-24T08:43:12.963Z,27.7
2018-07-24T08:44:15.024Z,27.8
2018-07-24T08:45:17.076Z,28
2018-07-24T08:46:19.567Z,28
2018-07-24T08:47:21.638Z,28.2
2018-07-24T08:48:23.682Z,28.3
2018-07-24T08:49:25.754Z,28.5
2018-07-24T08:50:28.205Z,28.7
2018-07-24T08:51:30.242Z,28.7
2018-07-24T08:52:33.276Z,28.5
2018-07-24T08:53:36.283Z,28.4
2018-07-24T08:54:38.926Z,29
2018-07-24T08:55:41.754Z,29.3
2018-07-24T08:56:43.600Z,29.4
2018-07-24T08:57:45.671Z,29.4
2018-07-24T08:58:47.700Z,29.2
2018-07-24T08:59:50.049Z,29.2
2018-07-24T09:00:52.099Z,28.9
2018-07-24T09:01:54.148Z,29.1
2018-07-24T09:02:56.249Z,28.8
2018-07-24T09:03:58.260Z,29.1
2018-07-24T09:05:00.603Z,29.4
2018-07-24T09:06:03.052Z,29.8
2018-07-24T09:07:05.384Z,29.8
2018-07-24T09:08:07.628Z,29.3
2018-07-24T09:09:09.674Z,29.4
2018-07-24T09:10:11.786Z,29.3
2018-07-24T09:11:13.801Z,29.5
2018-07-24T09:12:15.847Z,30
2018-07-24T09:13:18.197Z,30
2018-07-24T09:14:20.249Z,30
2018-07-24T09:15:22.596Z,29.4
2018-07-24T09:16:24.651Z,29.7
2018-07-24T09:17:27.006Z,30.1
2018-07-24T09:18:29.061Z,29.5
2018-07-24T09:19:31.120Z,29.2
2018-07-24T09:20:33.175Z,29.4
2018-07-24T09:21:35.507Z,29.8
2018-07-24T09:22:37.564Z,30
2018-07-24T09:23:39.909Z,29.9
2018-07-24T09:24:41.951Z,30.2
2018-07-24T09:25:44.591Z,30.3
2018-07-24T09:26:46.644Z,30.6
2018-07-24T09:27:49.163Z,30.2
2018-07-24T09:28:51.229Z,30.6
2018-07-24T09:29:53.664Z,30.8
2018-07-24T09:30:55.721Z,30.7
2018-07-24T09:31:57.773Z,30.3
2018-07-24T09:33:00.475Z,30.1
2018-07-24T09:34:02.521Z,30
2018-07-24T09:35:04.588Z,30.4
2018-07-24T09:36:07.044Z,30.2
2018-07-24T09:37:11.684Z,30.8
2018-07-24T09:38:19.874Z,30.7
2018-07-24T09:39:26.152Z,30.5
2018-07-24T09:40:33.662Z,30.7
2018-07-24T09:41:42.977Z,30.3
2018-07-24T09:42:46.360Z,30.7
2018-07-24T09:43:55.252Z,30.7
2018-07-24T09:45:03.937Z,30.5
2018-07-24T09:46:08.992Z,30.7
2018-07-24T09:47:11.177Z,30.7
2018-07-24T09:48:13.233Z,30.6
2018-07-24T09:49:15.289Z,30.8
2018-07-24T09:50:17.630Z,30.7
2018-07-24T09:51:19.700Z,30.7
2018-07-24T09:52:21.758Z,31
2018-07-24T09:53:23.819Z,31.1
2018-07-24T09:54:26.265Z,31
2018-07-24T09:55:28.312Z,31.2
2018-07-24T09:56:30.752Z,31.2
2018-07-24T09:57:33.112Z,31.2
2018-07-24T09:58:35.160Z,31.2
2018-07-24T09:59:37.611Z,31.6
2018-07-24T10:00:39.669Z,31.6
2018-07-24T10:01:41.728Z,31.1
2018-07-24T10:02:43.802Z,30.9
2018-07-24T10:03:46.145Z,30.9
2018-07-24T10:04:48.204Z,30.9
2018-07-24T10:05:50.260Z,30.9
2018-07-24T10:06:52.332Z,31.2
2018-07-24T10:07:54.382Z,31.2
2018-07-24T10:08:56.447Z,31.4
2018-07-24T10:09:58.509Z,31.5
2018-07-24T10:11:01.421Z,31.4
2018-07-24T10:12:03.428Z,31.1
2018-07-24T10:13:07.027Z,31.3
2018-07-24T10:14:09.081Z,31.3
2018-07-24T10:15:11.180Z,31.8
2018-07-24T10:16:13.899Z,31.9
2018-07-24T10:17:15.968Z,31.3
2018-07-24T10:18:18.023Z,31.4
2018-07-24T10:19:20.095Z,31.8
2018-07-24T10:20:22.433Z,31.9
2018-07-24T10:21:24.784Z,31.3
2018-07-24T10:22:27.283Z,31.3
2018-07-24T10:23:29.630Z,31.8
2018-07-24T10:24:31.803Z,31.9
2018-07-24T10:25:34.055Z,31.9
2018-07-24T10:26:36.119Z,31.5
2018-07-24T10:27:38.869Z,31.6
2018-07-24T10:28:40.941Z,31.8
2018-07-24T10:29:43.004Z,31.9
2018-07-24T10:30:45.060Z,32
2018-07-24T10:31:47.131Z,31.9
2018-07-24T10:32:49.190Z,31.4
2018-07-24T10:33:51.249Z,31
2018-07-24T10:34:53.308Z,31
2018-07-24T10:35:55.364Z,31.6
2018-07-24T10:36:57.440Z,31.8
2018-07-24T10:38:00.171Z,31.9
2018-07-24T10:39:02.238Z,31.7
2018-07-24T10:40:04.292Z,31.6
2018-07-24T10:41:06.361Z,31.9
2018-07-24T10:42:08.429Z,31.5
2018-07-24T10:43:10.822Z,32.2
2018-07-24T10:44:12.844Z,32.5
2018-07-24T10:45:14.899Z,32.2
2018-07-24T10:46:17.251Z,32.6
2018-07-24T10:47:19.311Z,32.1
2018-07-24T10:48:21.393Z,32.4
2018-07-24T10:49:23.522Z,32.5
2018-07-24T10:50:25.796Z,32.5
2018-07-24T10:51:28.724Z,32.5
2018-07-24T10:52:30.780Z,32.3
2018-07-24T10:53:32.856Z,32.3
2018-07-24T10:54:34.925Z,32.2
2018-07-24T10:55:37.274Z,32
2018-07-24T10:56:39.330Z,32.8
2018-07-24T10:57:41.710Z,33.2
2018-07-24T10:58:43.775Z,32
2018-07-24T10:59:45.845Z,32.5
2018-07-24T11:00:47.911Z,32.5
2018-07-24T11:01:50.275Z,32.8
2018-07-24T11:02:52.342Z,33
2018-07-24T11:03:54.407Z,33.2
2018-07-24T11:04:56.487Z,32.9
2018-07-24T11:05:58.550Z,33.1
2018-07-24T11:07:00.619Z,33.4
2018-07-24T11:08:02.695Z,33.7
2018-07-24T11:09:04.752Z,33.2
2018-07-24T11:10:06.823Z,33.3
2018-07-24T11:11:08.891Z,32.8
2018-07-24T11:12:10.960Z,32.5
2018-07-24T11:13:13.014Z,32.9
2018-07-24T11:14:15.093Z,32.7
2018-07-24T11:15:17.159Z,33
2018-07-24T11:16:19.225Z,32.8
2018-07-24T11:17:21.306Z,33.1
2018-07-24T11:18:23.647Z,32.6
2018-07-24T11:19:26.014Z,33
2018-07-24T11:20:28.071Z,33.2
2018-07-24T11:21:30.149Z,33.7
2018-07-24T11:22:32.416Z,33.3
2018-07-24T11:23:34.277Z,33
2018-07-24T11:24:36.355Z,33.3
2018-07-24T11:25:38.411Z,33.2
2018-07-24T11:26:40.502Z,32.9
2018-07-24T11:27:42.853Z,33
2018-07-24T11:28:44.915Z,33.3
2018-07-24T11:29:46.983Z,32.8
2018-07-24T11:30:49.338Z,33.3
2018-07-24T11:31:51.413Z,33.3
2018-07-24T11:32:53.913Z,33.7
2018-07-24T11:33:56.380Z,33.3
2018-07-24T11:34:58.442Z,33.7
2018-07-24T11:36:01.496Z,33.8
2018-07-24T11:37:03.280Z,34
2018-07-24T11:38:05.648Z,33.7
2018-07-24T11:39:07.722Z,33.9
2018-07-24T11:40:09.813Z,33.8
2018-07-24T11:41:12.176Z,33.6
2018-07-24T11:42:14.251Z,33.5
2018-07-24T11:43:16.331Z,33.3
2018-07-24T11:44:18.786Z,33.4
2018-07-24T11:45:21.171Z,33.3
2018-07-24T11:46:23.228Z,33.9
2018-07-24T11:47:25.308Z,34.2
2018-07-24T11:48:27.379Z,33.5
2018-07-24T11:49:29.453Z,34.1
2018-07-24T11:50:31.535Z,33.8
2018-07-24T11:51:33.667Z,33.9
2018-07-24T11:52:36.090Z,34
2018-07-24T11:53:38.150Z,34.2
2018-07-24T11:54:40.227Z,34
2018-07-24T11:55:42.289Z,34
2018-07-24T11:56:44.357Z,34.3
2018-07-24T11:57:46.443Z,34.5
2018-07-24T11:58:48.499Z,34.3
2018-07-24T11:59:50.574Z,34.5
2018-07-24T12:00:52.642Z,34.9
2018-07-24T12:01:54.710Z,33.7
2018-07-24T12:02:56.774Z,34.3
2018-07-24T12:03:58.848Z,34.1
2018-07-24T12:05:01.223Z,34.4
2018-07-24T12:06:03.288Z,34.7
2018-07-24T12:07:05.366Z,34.6
2018-07-24T12:08:07.426Z,34.3
2018-07-24T12:09:09.493Z,33.9
2018-07-24T12:10:11.572Z,34.3
2018-07-24T12:11:13.632Z,34
2018-07-24T12:12:15.709Z,33.8
2018-07-24T12:13:18.359Z,34.1
2018-07-24T12:14:20.431Z,33.6
2018-07-24T12:15:22.500Z,34.1
2018-07-24T12:16:24.568Z,34
2018-07-24T12:17:27.021Z,33.9
2018-07-24T12:18:29.091Z,33.9
2018-07-24T12:19:31.210Z,34.2
2018-07-24T12:20:33.230Z,34.1
2018-07-24T12:21:35.684Z,33.8
2018-07-24T12:22:37.756Z,34.1
2018-07-24T12:23:40.120Z,33.8
2018-07-24T12:24:42.176Z,33.7
2018-07-24T12:25:44.245Z,33.7
2018-07-24T12:26:46.315Z,33.9
2018-07-24T12:27:48.389Z,34.3
2018-07-24T12:28:50.448Z,34.2
2018-07-24T12:29:52.522Z,34.4
2018-07-24T12:30:54.597Z,34.4
2018-07-24T12:31:56.942Z,34.3
2018-07-24T12:32:59.020Z,34.2
2018-07-24T12:34:01.478Z,34.1
2018-07-24T12:35:04.230Z,34.4
2018-07-24T12:36:06.402Z,34.5
2018-07-24T12:37:08.386Z,34.3
2018-07-24T12:38:11.123Z,34.1
2018-07-24T12:39:13.580Z,33.7
2018-07-24T12:40:15.657Z,33.3
2018-07-24T12:41:17.714Z,34.2
2018-07-24T12:42:19.783Z,34.1
2018-07-24T12:43:21.856Z,33.8
2018-07-24T12:44:23.918Z,34.1
2018-07-24T12:45:25.992Z,33.7
2018-07-24T12:46:28.064Z,33.8
2018-07-24T12:47:30.133Z,33.9
2018-07-24T12:48:32.214Z,34.3
2018-07-24T12:49:34.278Z,34.1
2018-07-24T12:50:36.354Z,34.1
2018-07-24T12:51:38.701Z,34.5
2018-07-24T12:52:40.781Z,34.5
2018-07-24T12:53:42.840Z,34.9
2018-07-24T12:54:44.907Z,33.6
2018-07-24T12:55:47.558Z,34
2018-07-24T12:56:49.618Z,34.6
2018-07-24T12:57:51.763Z,34.8
2018-07-24T12:58:53.770Z,34.5
2018-07-24T12:59:56.228Z,34.7
2018-07-24T13:00:58.287Z,34.8
2018-07-24T13:02:00.365Z,34.3
2018-07-24T13:03:02.491Z,33.7
2018-07-24T13:04:04.595Z,34.2
2018-07-24T13:05:06.921Z,34.6
2018-07-24T13:06:09.048Z,34.6
2018-07-24T13:07:11.050Z,34.2
2018-07-24T13:08:13.123Z,34.3
2018-07-24T13:09:15.193Z,34.2
2018-07-24T13:10:17.538Z,34.3
2018-07-24T13:11:19.605Z,34.8
2018-07-24T13:12:21.672Z,35.1
2018-07-24T13:13:23.749Z,34.7
2018-07-24T13:14:25.829Z,34.2
2018-07-24T13:15:27.900Z,34.6
2018-07-24T13:16:29.989Z,34.7
2018-07-24T13:17:32.359Z,34.4
2018-07-24T13:18:34.422Z,34.2
2018-07-24T13:19:36.527Z,33.9
2018-07-24T13:20:38.998Z,33.4
2018-07-24T13:21:41.057Z,34.2
2018-07-24T13:22:43.517Z,34.2
2018-07-24T13:23:45.585Z,34.4
2018-07-24T13:24:47.661Z,34.3
2018-07-24T13:25:49.719Z,34.6
2018-07-24T13:26:51.805Z,34.9
2018-07-24T13:27:54.182Z,34.9
2018-07-24T13:28:56.252Z,34.3
2018-07-24T13:29:58.714Z,35
2018-07-24T13:31:00.793Z,35.4
2018-07-24T13:32:02.884Z,35.1
2018-07-24T13:33:05.224Z,35
2018-07-24T13:34:07.283Z,34.6
2018-07-24T13:35:09.364Z,34.5
2018-07-24T13:36:11.438Z,33.9
2018-07-24T13:37:13.896Z,33.5
2018-07-24T13:38:15.969Z,33.8
2018-07-24T13:39:18.034Z,34.2
2018-07-24T13:40:20.105Z,34.2
2018-07-24T13:41:22.184Z,34.5
2018-07-24T13:42:24.534Z,35
2018-07-24T13:43:26.882Z,35
2018-07-24T13:44:28.952Z,34.2
2018-07-24T13:45:31.023Z,34.1
2018-07-24T13:46:33.485Z,34.4
2018-07-24T13:47:35.561Z,34.2
2018-07-24T13:48:37.636Z,34
2018-07-24T13:49:39.703Z,34.2
2018-07-24T13:50:41.789Z,34
2018-07-24T13:51:43.861Z,34.4
2018-07-24T13:52:45.933Z,35
2018-07-24T13:53:48.013Z,35.4